createdAt,value
2023-04-06T00:00:27.099Z,6.63
2023-04-06T00:02:53.749Z,6.78
2023-04-06T00:05:21.306Z,6.51
2023-04-06T00:07:47.988Z,6.61
2023-04-06T00:10:14.889Z,6.32
2023-04-06T00:12:41.408Z,6.58
2023-04-06T00:15:08.367Z,6.24
2023-04-06T00:17:35.193Z,6.60
2023-04-06T00:20:01.804Z,6.59
2023-04-06T00:22:28.250Z,6.29
2023-04-06T00:24:54.699Z,6.44
2023-04-06T00:27:21.148Z,6.44
2023-04-06T00:29:47.594Z,6.38
2023-04-06T00:32:14.095Z,6.36
2023-04-06T00:34:40.636Z,6.33
2023-04-06T00:37:07.132Z,6.22
2023-04-06T00:39:33.600Z,6.20
2023-04-06T00:42:01.159Z,6.29
2023-04-06T00:44:27.908Z,6.20
2023-04-06T00:46:54.373Z,6.34
2023-04-06T00:49:21.188Z,6.20
2023-04-06T00:51:47.879Z,6.24
2023-04-06T00:54:14.398Z,6.24
2023-04-06T00:56:43.010Z,6.29
2023-04-06T00:59:09.822Z,6.18
2023-04-06T01:01:36.646Z,6.28
2023-04-06T01:04:03.824Z,6.16
2023-04-06T01:06:30.282Z,6.14
2023-04-06T01:08:56.940Z,6.13
2023-04-06T01:11:23.471Z,6.08
2023-04-06T01:13:49.940Z,6.04
2023-04-06T01:16:16.487Z,6.11
2023-04-06T01:18:43.399Z,6.18
2023-04-06T01:21:16.138Z,6.09
2023-04-06T01:23:45.298Z,6.11
2023-04-06T01:26:12.020Z,5.96
2023-04-06T01:28:38.677Z,5.65
2023-04-06T01:31:07.392Z,5.67
2023-04-06T01:33:33.871Z,5.62
2023-04-06T01:36:01.201Z,5.53
2023-04-06T01:38:27.927Z,5.55
2023-04-06T01:40:54.958Z,5.66
2023-04-06T01:43:21.525Z,5.57
2023-04-06T01:45:48.007Z,5.66
2023-04-06T01:48:14.468Z,5.45
2023-04-06T01:50:41.048Z,5.52
2023-04-06T01:53:07.527Z,5.73
2023-04-06T01:55:33.983Z,5.76
2023-04-06T01:58:00.600Z,5.77
2023-04-06T02:00:28.764Z,5.96
2023-04-06T02:02:55.445Z,5.83
2023-04-06T02:05:22.089Z,5.72
2023-04-06T02:07:48.630Z,5.79
2023-04-06T02:10:16.302Z,5.79
2023-04-06T02:12:42.855Z,5.69
2023-04-06T02:15:09.825Z,5.84
2023-04-06T02:17:36.413Z,5.71
2023-04-06T02:20:03.331Z,5.78
2023-04-06T02:22:29.817Z,5.63
2023-04-06T02:24:56.436Z,5.59
2023-04-06T02:27:22.925Z,5.54
2023-04-06T02:29:49.414Z,5.40
2023-04-06T02:32:15.853Z,5.42
2023-04-06T02:34:42.314Z,5.35
2023-04-06T02:37:08.753Z,5.20
2023-04-06T02:39:35.410Z,5.43
2023-04-06T02:42:01.947Z,5.41
2023-04-06T02:44:28.490Z,5.37
2023-04-06T02:46:55.246Z,5.46
2023-04-06T02:49:21.696Z,5.50
2023-04-06T02:51:48.174Z,5.44
2023-04-06T02:54:14.637Z,5.45
2023-04-06T02:56:41.329Z,5.37
2023-04-06T02:59:07.970Z,5.45
2023-04-06T03:01:34.720Z,5.34
2023-04-06T03:04:01.619Z,5.30
2023-04-06T03:06:28.086Z,5.49
2023-04-06T03:08:54.581Z,5.31
2023-04-06T03:11:21.569Z,5.23
2023-04-06T03:13:48.082Z,5.12
2023-04-06T03:16:14.642Z,5.11
2023-04-06T03:18:41.194Z,5.19
2023-04-06T03:21:07.658Z,5.24
2023-04-06T03:23:34.092Z,5.01
2023-04-06T03:26:00.676Z,5.21
2023-04-06T03:28:27.097Z,5.20
2023-04-06T03:30:53.572Z,5.21
2023-04-06T03:33:20.299Z,5.10
2023-04-06T03:35:46.750Z,5.00
2023-04-06T03:38:13.295Z,4.96
2023-04-06T03:40:39.717Z,5.13
2023-04-06T03:43:06.213Z,5.14
2023-04-06T03:45:32.729Z,5.00
2023-04-06T03:47:59.203Z,5.05
2023-04-06T03:50:26.208Z,5.11
2023-04-06T03:52:52.645Z,5.15
2023-04-06T03:55:19.091Z,5.09
2023-04-06T03:57:45.725Z,5.11
2023-04-06T04:00:13.209Z,5.00
2023-04-06T04:02:39.979Z,5.05
2023-04-06T04:05:06.940Z,5.17
2023-04-06T04:07:33.423Z,5.14
2023-04-06T04:09:59.859Z,5.06
2023-04-06T04:12:26.312Z,4.85
2023-04-06T04:14:52.763Z,4.81
2023-04-06T04:17:19.228Z,4.87
2023-04-06T04:19:45.665Z,4.97
2023-04-06T04:22:12.181Z,4.77
2023-04-06T04:24:38.632Z,4.83
2023-04-06T04:27:06.071Z,4.89
2023-04-06T04:29:32.638Z,4.74
2023-04-06T04:31:59.209Z,4.73
2023-04-06T04:34:26.202Z,4.71
2023-04-06T04:36:53.353Z,4.72
2023-04-06T04:39:19.810Z,4.68
2023-04-06T04:41:46.237Z,4.75
2023-04-06T04:44:12.789Z,4.48
2023-04-06T04:46:39.859Z,4.70
2023-04-06T04:49:06.508Z,4.56
2023-04-06T04:51:33.692Z,4.60
2023-04-06T04:54:00.333Z,4.81
2023-04-06T04:56:28.501Z,4.78
2023-04-06T04:58:55.123Z,4.99
2023-04-06T05:01:21.720Z,5.08
2023-04-06T05:03:48.373Z,5.03
2023-04-06T05:06:14.955Z,4.79
2023-04-06T05:08:42.484Z,4.75
2023-04-06T05:11:09.994Z,4.55
2023-04-06T05:13:36.564Z,4.75
2023-04-06T05:16:03.149Z,4.82
2023-04-06T05:18:29.764Z,4.73
2023-04-06T05:20:56.383Z,4.68
2023-04-06T05:23:22.843Z,4.71
2023-04-06T05:25:50.076Z,4.89
2023-04-06T05:28:16.945Z,5.21
2023-04-06T05:30:44.309Z,5.12
2023-04-06T05:33:12.030Z,5.09
2023-04-06T05:35:38.680Z,5.29
2023-04-06T05:38:08.961Z,5.04
2023-04-06T05:40:35.569Z,5.30
2023-04-06T05:43:02.076Z,5.47
2023-04-06T05:45:28.563Z,5.40
2023-04-06T05:47:55.150Z,5.26
2023-04-06T05:50:21.674Z,5.32
2023-04-06T05:52:48.214Z,5.70
2023-04-06T05:55:14.717Z,5.73
2023-04-06T05:57:41.179Z,5.87
2023-04-06T06:00:10.834Z,6.01
2023-04-06T06:02:37.843Z,6.69
2023-04-06T06:05:04.628Z,6.77
2023-04-06T06:07:31.069Z,7.37
2023-04-06T06:09:59.131Z,7.08
2023-04-06T06:12:25.631Z,7.55
2023-04-06T06:14:52.077Z,8.32
2023-04-06T06:17:18.528Z,7.69
2023-04-06T06:19:45.250Z,8.04
2023-04-06T06:22:12.029Z,8.81
2023-04-06T06:24:38.529Z,8.93
2023-04-06T06:27:05.021Z,9.31
2023-04-06T06:29:31.520Z,9.19
2023-04-06T06:31:58.131Z,9.09
2023-04-06T06:34:24.640Z,9.61
2023-04-06T06:36:52.956Z,9.95
2023-04-06T06:39:19.476Z,9.51
2023-04-06T06:41:46.023Z,10.25
2023-04-06T06:44:12.592Z,10.54
2023-04-06T06:46:39.058Z,9.63
2023-04-06T06:49:05.549Z,9.33
2023-04-06T06:51:32.028Z,8.68
2023-04-06T06:53:58.519Z,8.96
2023-04-06T06:56:25.081Z,9.11
2023-04-06T06:58:51.609Z,9.33
2023-04-06T07:01:18.692Z,9.15
2023-04-06T07:03:45.443Z,9.76
2023-04-06T07:06:11.961Z,8.88
2023-04-06T07:08:38.439Z,9.05
2023-04-06T07:11:05.205Z,9.40
2023-04-06T07:13:31.694Z,8.72
2023-04-06T07:15:58.171Z,9.66
2023-04-06T07:18:24.823Z,9.90
2023-04-06T07:20:51.271Z,10.24
2023-04-06T07:23:17.863Z,10.84
2023-04-06T07:25:44.328Z,10.69
2023-04-06T07:28:11.214Z,11.02
2023-04-06T07:30:41.589Z,10.92
2023-04-06T07:33:08.216Z,11.11
2023-04-06T07:35:35.812Z,10.00
2023-04-06T07:38:02.415Z,11.13
2023-04-06T07:40:29.212Z,11.89
2023-04-06T07:42:56.816Z,11.27
2023-04-06T07:45:24.551Z,13.08
2023-04-06T07:47:51.166Z,13.34
2023-04-06T07:50:17.924Z,13.39
2023-04-06T07:52:44.443Z,13.77
2023-04-06T07:55:10.900Z,12.32
2023-04-06T07:57:37.402Z,12.89
2023-04-06T08:00:04.783Z,12.71
2023-04-06T08:02:33.023Z,13.57
2023-04-06T08:04:59.661Z,14.92
2023-04-06T08:07:26.319Z,13.64
2023-04-06T08:09:53.107Z,13.23
2023-04-06T08:12:19.566Z,13.85
2023-04-06T08:14:46.026Z,12.58
2023-04-06T08:17:12.671Z,12.95
2023-04-06T08:19:39.127Z,12.98
2023-04-06T08:22:05.617Z,12.79
2023-04-06T08:24:33.331Z,13.55
2023-04-06T08:26:59.921Z,13.02
2023-04-06T08:29:26.386Z,14.34
2023-04-06T08:31:52.899Z,13.45
2023-04-06T08:34:19.489Z,13.34
2023-04-06T08:36:46.933Z,13.77
2023-04-06T08:39:13.432Z,13.12
2023-04-06T08:41:42.946Z,12.93
2023-04-06T08:44:09.934Z,13.56
2023-04-06T08:46:36.646Z,13.80
2023-04-06T08:49:04.260Z,13.63
2023-04-06T08:51:34.092Z,14.03
2023-04-06T08:54:01.200Z,13.00
2023-04-06T08:56:29.389Z,13.15
2023-04-06T08:58:56.941Z,12.97
2023-04-06T09:01:28.681Z,13.04
2023-04-06T09:04:01.321Z,12.55
2023-04-06T09:06:28.380Z,12.59
2023-04-06T09:08:55.890Z,12.31
2023-04-06T09:11:22.529Z,12.84
2023-04-06T09:13:54.060Z,12.82
2023-04-06T09:16:21.792Z,12.40
2023-04-06T09:18:49.126Z,12.15
2023-04-06T09:21:19.833Z,11.85
2023-04-06T09:23:47.218Z,12.65
2023-04-06T09:26:15.933Z,12.62
2023-04-06T09:28:49.783Z,12.61
2023-04-06T09:31:23.294Z,13.52
2023-04-06T09:33:49.877Z,12.92
2023-04-06T09:36:16.861Z,13.26
2023-04-06T09:38:57.214Z,13.24
2023-04-06T09:41:31.291Z,12.95
2023-04-06T09:44:04.826Z,13.44
2023-04-06T09:46:50.605Z,13.14
2023-04-06T09:49:23.832Z,14.03
2023-04-06T09:51:56.705Z,13.11
2023-04-06T09:54:24.332Z,13.18
2023-04-06T09:57:03.068Z,13.58
2023-04-06T09:59:29.637Z,14.20
2023-04-06T10:01:59.336Z,13.44
2023-04-06T10:04:35.103Z,13.78
2023-04-06T10:07:03.259Z,14.18
2023-04-06T10:09:36.873Z,13.68
2023-04-06T10:12:07.417Z,13.26
2023-04-06T10:14:38.517Z,14.46
2023-04-06T10:17:06.031Z,14.15
2023-04-06T10:19:54.871Z,14.35
2023-04-06T10:22:30.704Z,13.72
2023-04-06T10:24:57.186Z,13.34
2023-04-06T10:27:30.815Z,13.71
2023-04-06T10:30:04.250Z,14.22
2023-04-06T10:32:38.399Z,13.59
2023-04-06T10:35:12.601Z,13.53
2023-04-06T10:37:51.412Z,13.92
2023-04-06T10:40:26.132Z,13.96
2023-04-06T10:42:56.820Z,13.91
2023-04-06T10:45:25.461Z,14.43
2023-04-06T10:47:56.009Z,13.59
2023-04-06T10:50:24.129Z,13.63
2023-04-06T10:53:03.829Z,14.12
2023-04-06T10:55:30.849Z,13.53
2023-04-06T10:57:57.419Z,13.96
2023-04-06T11:00:24.432Z,14.49
2023-04-06T11:02:52.151Z,14.82
2023-04-06T11:05:18.711Z,14.39
2023-04-06T11:07:45.576Z,13.93
2023-04-06T11:10:16.911Z,13.84
2023-04-06T11:12:45.030Z,13.94
2023-04-06T11:15:11.779Z,14.12
2023-04-06T11:17:38.379Z,13.89
2023-04-06T11:20:10.878Z,14.32
2023-04-06T11:22:37.623Z,15.13
2023-04-06T11:27:37.763Z,13.86
2023-04-06T11:30:04.711Z,14.22
2023-04-06T11:32:40.249Z,14.62
2023-04-06T11:37:38.463Z,13.88
2023-04-06T11:40:09.269Z,14.86
2023-04-06T11:42:36.555Z,14.50
2023-04-06T11:45:03.330Z,14.28
2023-04-06T11:47:31.971Z,14.65
2023-04-06T11:50:15.511Z,15.07
2023-04-06T11:52:42.660Z,14.98
2023-04-06T11:55:14.951Z,14.83
2023-04-06T11:57:42.264Z,13.95
2023-04-06T12:00:13.329Z,14.49
2023-04-06T12:02:40.853Z,14.49
2023-04-06T12:05:09.243Z,14.50
2023-04-06T12:07:36.188Z,14.26
2023-04-06T12:10:04.160Z,14.52
2023-04-06T12:12:31.107Z,14.76
2023-04-06T12:14:58.010Z,15.37
2023-04-06T12:17:24.853Z,14.73
2023-04-06T12:19:51.745Z,15.09
2023-04-06T12:22:18.985Z,15.10
2023-04-06T12:24:45.625Z,14.97
2023-04-06T12:27:12.519Z,14.93
2023-04-06T12:29:39.638Z,15.06
2023-04-06T12:32:07.098Z,15.55
2023-04-06T12:34:33.589Z,15.14
2023-04-06T12:37:00.619Z,14.30
2023-04-06T12:39:28.799Z,14.32
2023-04-06T12:41:56.271Z,14.14
2023-04-06T12:44:23.667Z,14.83
2023-04-06T12:46:51.459Z,15.18
2023-04-06T12:49:19.995Z,15.43
2023-04-06T12:51:46.607Z,15.36
2023-04-06T12:54:13.105Z,15.06
2023-04-06T12:56:39.947Z,14.79
2023-04-06T12:59:06.484Z,15.02
2023-04-06T13:01:33.966Z,15.25
2023-04-06T13:04:00.536Z,14.72
2023-04-06T13:06:30.213Z,15.38
2023-04-06T13:08:56.962Z,15.68
2023-04-06T13:11:26.902Z,15.62
2023-04-06T13:13:54.295Z,15.38
2023-04-06T13:16:20.864Z,15.53
2023-04-06T13:18:47.397Z,15.38
2023-04-06T13:21:17.463Z,15.46
2023-04-06T13:23:44.808Z,15.20
2023-04-06T13:26:11.470Z,15.06
2023-04-06T13:28:39.717Z,15.19
2023-04-06T13:31:07.432Z,15.08
2023-04-06T13:33:34.212Z,15.11
2023-04-06T13:36:01.126Z,15.29
2023-04-06T13:38:27.884Z,15.07
2023-04-06T13:40:54.872Z,15.64
2023-04-06T13:43:21.677Z,15.61
2023-04-06T13:45:52.938Z,15.26
2023-04-06T13:48:19.652Z,15.16
2023-04-06T13:50:46.788Z,15.12
2023-04-06T13:53:13.796Z,16.01
2023-04-06T13:55:40.331Z,15.63
2023-04-06T13:58:06.753Z,15.99
2023-04-06T14:00:33.202Z,15.34
2023-04-06T14:02:59.808Z,16.06
2023-04-06T14:05:28.675Z,16.19
2023-04-06T14:07:55.512Z,16.18
2023-04-06T14:10:24.665Z,15.97
2023-04-06T14:12:51.349Z,15.93
2023-04-06T14:15:18.488Z,15.82
2023-04-06T14:17:45.156Z,15.87
2023-04-06T14:20:15.034Z,15.73
2023-04-06T14:22:43.745Z,16.14
2023-04-06T14:25:12.014Z,16.10
2023-04-06T14:27:38.441Z,15.68
2023-04-06T14:30:05.279Z,15.83
2023-04-06T14:32:31.748Z,16.07
2023-04-06T14:34:58.158Z,15.78
2023-04-06T14:37:24.549Z,15.77
2023-04-06T14:39:50.992Z,15.88
2023-04-06T14:42:17.446Z,15.29
2023-04-06T14:44:46.111Z,15.13
2023-04-06T14:47:12.843Z,15.13
2023-04-06T14:49:39.308Z,15.50
2023-04-06T14:52:05.917Z,15.76
2023-04-06T14:54:32.432Z,15.70
2023-04-06T14:56:58.964Z,15.22
2023-04-06T14:59:25.552Z,15.77
2023-04-06T15:01:52.487Z,16.19
2023-04-06T15:04:19.123Z,15.63
2023-04-06T15:06:45.763Z,15.77
2023-04-06T15:09:12.216Z,15.22
2023-04-06T15:11:39.195Z,15.85
2023-04-06T15:14:07.214Z,15.60
2023-04-06T15:16:33.893Z,15.37
2023-04-06T15:19:01.326Z,16.13
2023-04-06T15:21:27.933Z,15.41
2023-04-06T15:23:54.836Z,15.26
2023-04-06T15:26:21.974Z,15.77
2023-04-06T15:28:48.416Z,15.66
2023-04-06T15:33:48.634Z,16.34
2023-04-06T15:36:29.374Z,15.80
2023-04-06T15:38:57.582Z,15.57
2023-04-06T15:41:24.188Z,15.29
2023-04-06T15:43:51.468Z,15.94
2023-04-06T15:46:17.944Z,15.98
2023-04-06T15:48:44.920Z,15.85
2023-04-06T15:51:11.549Z,16.03
2023-04-06T15:53:38.919Z,16.36
2023-04-06T15:56:08.554Z,16.25
2023-04-06T15:58:35.832Z,15.49
2023-04-06T16:01:14.379Z,15.79
2023-04-06T16:03:41.002Z,15.54
2023-04-06T16:06:08.885Z,15.62
2023-04-06T16:08:36.718Z,15.46
2023-04-06T16:11:03.364Z,15.54
2023-04-06T16:13:29.876Z,15.87
2023-04-06T16:15:56.405Z,15.10
2023-04-06T16:18:22.889Z,15.09
2023-04-06T16:20:49.638Z,15.52
2023-04-06T16:23:16.496Z,15.06
2023-04-06T16:25:42.941Z,15.38
2023-04-06T16:28:09.441Z,15.81
2023-04-06T16:30:40.922Z,15.29
2023-04-06T16:33:09.222Z,15.00
2023-04-06T16:35:35.920Z,14.99
2023-04-06T16:38:02.324Z,15.02
2023-04-06T16:40:28.774Z,15.56
2023-04-06T16:42:56.189Z,15.41
2023-04-06T16:45:22.625Z,15.46
2023-04-06T16:47:50.465Z,14.60
2023-04-06T16:50:17.471Z,14.66
2023-04-06T16:52:44.007Z,14.81
2023-04-06T16:55:11.085Z,14.92
2023-04-06T16:57:37.685Z,14.48
2023-04-06T17:00:05.714Z,14.44
2023-04-06T17:02:35.991Z,14.61
2023-04-06T17:05:04.118Z,14.79
2023-04-06T17:07:35.592Z,14.38
2023-04-06T17:10:02.901Z,14.60
2023-04-06T17:12:29.816Z,14.46
2023-04-06T17:14:56.857Z,14.28
2023-04-06T17:17:23.452Z,14.37
2023-04-06T17:19:50.033Z,14.50
2023-04-06T17:22:20.618Z,14.06
2023-04-06T17:24:48.679Z,14.39
2023-04-06T17:27:15.890Z,14.20
2023-04-06T17:29:42.605Z,14.10
2023-04-06T17:32:09.264Z,13.88
2023-04-06T17:34:35.788Z,14.30
2023-04-06T17:37:02.466Z,13.85
2023-04-06T17:39:28.934Z,13.83
2023-04-06T17:41:55.366Z,13.93
2023-04-06T17:44:21.835Z,13.76
2023-04-06T17:46:48.350Z,13.75
2023-04-06T17:49:14.904Z,14.00
2023-04-06T17:51:41.326Z,13.57
2023-04-06T17:54:07.750Z,13.47
2023-04-06T17:56:34.179Z,13.93
2023-04-06T17:59:01.298Z,13.68
2023-04-06T18:01:28.023Z,13.52
2023-04-06T18:03:54.646Z,13.12
2023-04-06T18:06:25.116Z,13.26
2023-04-06T18:08:52.408Z,12.74
2023-04-06T18:11:19.779Z,13.27
2023-04-06T18:13:46.246Z,13.07
2023-04-06T18:16:12.942Z,13.42
2023-04-06T18:18:39.428Z,13.05
2023-04-06T18:21:06.561Z,12.77
2023-04-06T18:23:37.615Z,12.89
2023-04-06T18:26:05.563Z,12.90
2023-04-06T18:28:32.332Z,12.99
2023-04-06T18:30:59.697Z,13.19
2023-04-06T18:33:29.052Z,12.56
2023-04-06T18:35:56.651Z,12.95
2023-04-06T18:38:24.094Z,12.93
2023-04-06T18:40:51.363Z,13.15
2023-04-06T18:43:17.799Z,13.09
2023-04-06T18:45:44.765Z,12.53
2023-04-06T18:48:12.059Z,12.63
2023-04-06T18:50:38.631Z,12.79
2023-04-06T18:53:05.189Z,12.53
2023-04-06T18:55:34.837Z,12.03
2023-04-06T18:58:01.416Z,12.14
2023-04-06T19:00:28.009Z,12.22
2023-04-06T19:02:54.842Z,12.20
2023-04-06T19:05:22.464Z,11.88
2023-04-06T19:07:52.580Z,12.13
2023-04-06T19:10:19.576Z,12.07
2023-04-06T19:12:46.734Z,12.03
2023-04-06T19:15:13.533Z,11.74
2023-04-06T19:17:40.044Z,11.76
2023-04-06T19:20:07.446Z,11.56
2023-04-06T19:22:37.718Z,11.81
2023-04-06T19:25:05.574Z,11.65
2023-04-06T19:27:32.229Z,11.37
2023-04-06T19:30:00.008Z,11.72
2023-04-06T19:32:27.000Z,11.50
2023-04-06T19:34:53.736Z,11.24
2023-04-06T19:37:20.194Z,11.27
2023-04-06T19:39:47.704Z,11.49
2023-04-06T19:42:15.540Z,11.13
2023-04-06T19:44:42.232Z,11.08
2023-04-06T19:47:08.893Z,11.14
2023-04-06T19:49:35.430Z,10.99
2023-04-06T19:52:01.878Z,10.72
2023-04-06T19:54:28.323Z,10.94
2023-04-06T19:56:54.872Z,11.06
2023-04-06T19:59:21.594Z,10.80
2023-04-06T20:01:48.200Z,10.63
2023-04-06T20:04:14.953Z,10.58
2023-04-06T20:06:41.571Z,10.33
2023-04-06T20:09:08.172Z,10.79
2023-04-06T20:11:35.978Z,11.02
2023-04-06T20:14:02.582Z,10.28
2023-04-06T20:16:29.114Z,10.84
2023-04-06T20:18:55.557Z,10.32
2023-04-06T20:21:22.179Z,10.58
2023-04-06T20:23:48.711Z,10.22
2023-04-06T20:26:15.686Z,10.24
2023-04-06T20:28:42.477Z,10.15
2023-04-06T20:31:08.937Z,10.47
2023-04-06T20:33:35.479Z,10.56
2023-04-06T20:36:02.156Z,10.45
2023-04-06T20:40:59.596Z,10.69
2023-04-06T20:43:28.475Z,10.47
2023-04-06T20:45:59.130Z,10.16
2023-04-06T20:48:26.086Z,10.25
2023-04-06T20:50:52.940Z,10.32
2023-04-06T20:53:20.658Z,9.98
2023-04-06T20:55:47.504Z,9.94
2023-04-06T20:58:16.019Z,9.85
2023-04-06T21:00:42.525Z,9.79
2023-04-06T21:03:09.269Z,9.55
2023-04-06T21:05:36.087Z,9.74
2023-04-06T21:08:02.612Z,10.04
2023-04-06T21:10:29.145Z,9.46
2023-04-06T21:12:55.710Z,9.64
2023-04-06T21:15:22.707Z,9.50
2023-04-06T21:17:49.505Z,9.54
2023-04-06T21:20:16.178Z,9.77
2023-04-06T21:22:42.647Z,9.62
2023-04-06T21:25:09.413Z,9.65
2023-04-06T21:27:35.852Z,9.79
2023-04-06T21:30:02.296Z,9.63
2023-04-06T21:32:29.954Z,9.62
2023-04-06T21:34:56.387Z,9.72
2023-04-06T21:37:22.871Z,9.95
2023-04-06T21:39:49.517Z,9.38
2023-04-06T21:42:15.986Z,9.12
2023-04-06T21:44:42.409Z,9.46
2023-04-06T21:47:08.850Z,9.25
2023-04-06T21:49:35.342Z,9.27
2023-04-06T21:52:01.876Z,9.38
2023-04-06T21:54:33.085Z,9.11
2023-04-06T21:56:59.862Z,9.23
2023-04-06T21:59:26.341Z,9.19
2023-04-06T22:01:54.231Z,9.10
2023-04-06T22:04:25.690Z,9.22
2023-04-06T22:06:52.247Z,9.12
2023-04-06T22:09:18.670Z,9.02
2023-04-06T22:11:45.281Z,8.82
2023-04-06T22:14:12.707Z,9.26
2023-04-06T22:16:39.344Z,8.99
2023-04-06T22:19:05.882Z,9.11
2023-04-06T22:21:32.395Z,9.34
2023-04-06T22:23:58.949Z,9.00
2023-04-06T22:26:26.239Z,9.02
2023-04-06T22:28:52.988Z,9.04
2023-04-06T22:31:19.449Z,8.94
2023-04-06T22:33:45.869Z,8.59
2023-04-06T22:36:12.557Z,8.70
2023-04-06T22:38:39.049Z,8.65
2023-04-06T22:41:07.180Z,8.39
2023-04-06T22:43:34.834Z,8.63
2023-04-06T22:46:01.425Z,8.38
2023-04-06T22:48:27.970Z,8.46
2023-04-06T22:50:54.610Z,8.32
2023-04-06T22:53:21.058Z,8.44
2023-04-06T22:55:47.616Z,8.39
2023-04-06T22:58:14.078Z,8.59
2023-04-06T23:00:40.547Z,8.49
2023-04-06T23:03:07.067Z,8.36
2023-04-06T23:05:33.654Z,8.42
2023-04-06T23:08:00.147Z,8.34
2023-04-06T23:10:26.645Z,8.22
2023-04-06T23:12:53.102Z,8.06
2023-04-06T23:15:19.557Z,8.16
2023-04-06T23:17:46.049Z,8.21
2023-04-06T23:20:12.562Z,8.09
2023-04-06T23:22:38.985Z,8.36
2023-04-06T23:25:07.567Z,8.17
2023-04-06T23:27:34.018Z,8.09
2023-04-06T23:30:00.454Z,8.23
2023-04-06T23:32:26.992Z,8.15
2023-04-06T23:34:53.457Z,8.24
2023-04-06T23:37:19.921Z,8.21
2023-04-06T23:39:48.268Z,8.57
2023-04-06T23:42:14.720Z,8.07
2023-04-06T23:44:41.318Z,8.15
2023-04-06T23:47:07.961Z,8.18
2023-04-06T23:49:34.618Z,8.04
2023-04-06T23:52:01.109Z,8.22
2023-04-06T23:54:27.518Z,7.94
2023-04-06T23:56:53.997Z,8.28
2023-04-06T23:59:20.443Z,8.02
